createdAt,value
2022-10-23T00:01:38.196Z,8.13
2022-10-23T00:04:08.779Z,8.30
2022-10-23T00:06:37.597Z,8.57
2022-10-23T00:09:08.305Z,8.37
2022-10-23T00:11:37.621Z,9.13
2022-10-23T00:14:09.076Z,8.97
2022-10-23T00:16:37.952Z,11.00
2022-10-23T00:19:06.994Z,11.20
2022-10-23T00:21:35.472Z,9.60
2022-10-23T00:24:03.812Z,9.43
2022-10-23T00:26:32.317Z,8.20
2022-10-23T00:29:00.719Z,9.23
2022-10-23T00:31:30.417Z,10.73
2022-10-23T00:33:59.022Z,13.00
2022-10-23T00:36:28.324Z,14.83
2022-10-23T00:38:56.729Z,14.07
2022-10-23T00:41:28.502Z,14.37
2022-10-23T00:44:00.711Z,14.50
2022-10-23T00:46:30.871Z,17.83
2022-10-23T00:49:00.351Z,18.10
2022-10-23T00:51:33.477Z,16.73
2022-10-23T00:54:22.841Z,20.43
2022-10-23T00:56:52.555Z,22.77
2022-10-23T00:59:21.072Z,23.87
2022-10-23T01:01:51.029Z,23.67
2022-10-23T01:04:20.493Z,25.10
2022-10-23T01:07:00.502Z,25.10
2022-10-23T01:09:33.740Z,23.73
2022-10-23T01:12:11.663Z,23.20
2022-10-23T01:14:48.151Z,21.93
2022-10-23T01:17:25.862Z,22.87
2022-10-23T01:20:08.250Z,23.27
2022-10-23T01:22:55.165Z,23.40
2022-10-23T01:25:33.218Z,25.17
2022-10-23T01:28:06.001Z,26.00
2022-10-23T01:30:36.402Z,24.87
2022-10-23T01:33:11.112Z,25.37
2022-10-23T01:35:50.665Z,25.43
2022-10-23T01:38:24.172Z,25.23
2022-10-23T01:41:02.233Z,22.00
2022-10-23T01:43:37.056Z,23.93
2022-10-23T01:46:09.953Z,21.60
2022-10-23T01:48:42.113Z,21.20
2022-10-23T01:51:14.441Z,19.90
2022-10-23T01:53:45.415Z,19.57
2022-10-23T01:56:19.086Z,17.37
2022-10-23T01:58:53.537Z,16.50
2022-10-23T02:01:27.149Z,16.10
2022-10-23T02:06:30.853Z,16.97
2022-10-23T02:08:59.415Z,15.77
2022-10-23T02:11:28.756Z,14.47
2022-10-23T02:14:05.236Z,13.40
2022-10-23T02:16:40.674Z,15.17
2022-10-23T02:19:17.747Z,13.90
2022-10-23T02:21:53.260Z,14.37
2022-10-23T02:24:30.418Z,14.60
2022-10-23T02:27:02.595Z,14.23
2022-10-23T02:29:36.296Z,16.70
2022-10-23T02:32:04.860Z,14.50
2022-10-23T02:34:33.279Z,15.00
2022-10-23T02:37:01.743Z,15.40
2022-10-23T02:39:31.048Z,15.73
2022-10-23T02:42:05.294Z,17.47
2022-10-23T02:44:44.287Z,17.97
2022-10-23T02:47:26.306Z,19.57
2022-10-23T02:50:05.016Z,22.33
2022-10-23T02:52:42.722Z,19.90
2022-10-23T02:55:21.848Z,21.93
2022-10-23T02:57:56.314Z,21.47
2022-10-23T03:00:27.034Z,20.27
2022-10-23T03:02:59.239Z,20.83
2022-10-23T03:05:34.597Z,22.23
2022-10-23T03:08:05.271Z,22.20
2022-10-23T03:10:33.613Z,22.97
2022-10-23T03:13:02.020Z,24.63
2022-10-23T03:15:40.692Z,23.03
2022-10-23T03:18:13.248Z,24.37
2022-10-23T03:20:46.131Z,22.60
2022-10-23T03:23:16.263Z,24.83
2022-10-23T03:25:44.680Z,25.50
2022-10-23T03:28:26.476Z,26.30
2022-10-23T03:30:56.360Z,27.33
2022-10-23T03:33:25.290Z,29.77
2022-10-23T03:35:53.744Z,30.60
2022-10-23T03:38:22.464Z,32.67
2022-10-23T03:40:50.837Z,29.83
2022-10-23T03:43:19.204Z,29.23
2022-10-23T03:45:47.468Z,27.77
2022-10-23T03:48:19.411Z,26.67
2022-10-23T03:50:47.818Z,29.00
2022-10-23T03:53:16.354Z,28.10
2022-10-23T03:55:45.531Z,28.30
2022-10-23T03:58:14.105Z,27.57
2022-10-23T04:03:16.092Z,32.10
2022-10-23T04:05:45.686Z,30.67
2022-10-23T04:08:17.638Z,31.00
2022-10-23T04:10:50.955Z,29.60
2022-10-23T04:13:22.620Z,31.60
2022-10-23T04:15:51.877Z,29.57
2022-10-23T04:18:20.609Z,30.00
2022-10-23T04:20:51.021Z,31.13
2022-10-23T04:23:19.912Z,30.60
2022-10-23T04:25:49.300Z,31.97
2022-10-23T04:28:17.585Z,29.60
2022-10-23T04:30:47.323Z,28.90
2022-10-23T04:33:15.717Z,29.30
2022-10-23T04:35:44.985Z,29.57
2022-10-23T04:38:14.779Z,26.20
2022-10-23T04:40:43.156Z,27.77
2022-10-23T04:43:11.956Z,28.27
2022-10-23T04:45:42.111Z,28.90
2022-10-23T04:48:10.965Z,32.30
2022-10-23T04:50:58.678Z,31.90
2022-10-23T04:53:32.568Z,31.50
2022-10-23T04:56:15.836Z,29.07
2022-10-23T04:58:51.512Z,29.60
2022-10-23T05:01:20.399Z,29.13
2022-10-23T05:03:49.864Z,27.90
2022-10-23T05:06:18.151Z,28.50
2022-10-23T05:09:13.863Z,31.53
2022-10-23T05:11:56.942Z,33.57
2022-10-23T05:14:25.829Z,33.87
2022-10-23T05:16:59.852Z,31.23
2022-10-23T05:19:32.331Z,32.27
2022-10-23T05:22:01.296Z,33.20
2022-10-23T05:24:48.213Z,34.20
2022-10-23T05:27:22.001Z,33.63
2022-10-23T05:29:52.124Z,34.07
2022-10-23T05:32:26.857Z,33.47
2022-10-23T05:34:56.223Z,32.47
2022-10-23T05:37:28.327Z,32.30
2022-10-23T05:40:11.439Z,29.93
2022-10-23T05:42:41.920Z,31.10
2022-10-23T05:45:12.898Z,32.60
2022-10-23T05:48:10.942Z,32.37
2022-10-23T05:51:11.138Z,32.57
2022-10-23T05:53:57.893Z,29.80
2022-10-23T05:56:35.980Z,26.43
2022-10-23T05:59:11.008Z,25.90
2022-10-23T06:02:02.514Z,25.67
2022-10-23T06:04:48.499Z,25.70
2022-10-23T06:07:16.892Z,27.10
2022-10-23T06:09:47.547Z,26.00
2022-10-23T06:12:17.225Z,26.40
2022-10-23T06:14:48.528Z,27.17
2022-10-23T06:17:17.227Z,26.33
2022-10-23T06:19:47.937Z,27.50
2022-10-23T06:24:56.761Z,24.50
2022-10-23T06:27:29.514Z,23.63
2022-10-23T06:29:58.121Z,25.17
2022-10-23T06:32:26.539Z,25.60
2022-10-23T06:35:12.592Z,26.43
2022-10-23T06:37:41.083Z,27.97
2022-10-23T06:40:27.348Z,27.77
2022-10-23T06:43:05.048Z,27.93
2022-10-23T06:45:36.207Z,26.97
2022-10-23T06:48:16.776Z,28.33
2022-10-23T06:51:07.378Z,30.57
2022-10-23T06:53:41.935Z,32.40
2022-10-23T06:56:29.293Z,30.80
2022-10-23T06:58:59.913Z,32.23
2022-10-23T07:01:28.541Z,30.90
2022-10-23T07:03:57.259Z,30.67
2022-10-23T07:06:27.992Z,33.97
2022-10-23T07:08:56.369Z,33.87
2022-10-23T07:11:43.105Z,35.50
2022-10-23T07:14:12.921Z,36.40
2022-10-23T07:16:41.572Z,36.10
2022-10-23T07:19:11.242Z,37.73
2022-10-23T07:21:56.225Z,36.13
2022-10-23T07:24:43.983Z,39.00
2022-10-23T07:27:20.430Z,36.97
2022-10-23T07:29:57.413Z,36.57
2022-10-23T07:32:28.170Z,36.40
2022-10-23T07:37:57.298Z,37.47
2022-10-23T07:40:26.159Z,35.40
2022-10-23T07:42:58.094Z,36.57
2022-10-23T07:45:28.889Z,35.40
2022-10-23T07:47:57.592Z,37.83
2022-10-23T07:50:30.764Z,39.63
2022-10-23T07:52:59.843Z,41.73
2022-10-23T07:55:37.625Z,42.90
2022-10-23T07:58:12.318Z,38.10
2022-10-23T08:00:52.101Z,37.03
2022-10-23T08:03:29.634Z,36.67
2022-10-23T08:05:58.735Z,34.83
2022-10-23T08:08:28.038Z,37.83
2022-10-23T08:11:02.982Z,38.53
2022-10-23T08:13:37.354Z,38.07
2022-10-23T08:16:09.643Z,36.47
2022-10-23T08:19:05.150Z,36.77
2022-10-23T08:21:34.107Z,39.73
2022-10-23T08:24:02.779Z,38.77
2022-10-23T08:26:32.445Z,39.50
2022-10-23T08:29:01.692Z,38.83
2022-10-23T08:31:32.553Z,37.27
2022-10-23T08:34:30.077Z,36.57
2022-10-23T08:36:59.610Z,35.93
2022-10-23T08:39:28.107Z,34.20
2022-10-23T08:42:05.858Z,33.20
2022-10-23T08:44:37.670Z,33.47
2022-10-23T08:47:11.782Z,32.27
2022-10-23T08:49:51.788Z,31.80
2022-10-23T08:52:26.891Z,30.87
2022-10-23T08:55:03.515Z,30.93
2022-10-23T08:57:40.040Z,30.97
2022-10-23T09:00:15.704Z,29.20
2022-10-23T09:02:47.482Z,26.77
2022-10-23T09:05:20.535Z,26.20
2022-10-23T09:08:12.740Z,26.03
2022-10-23T09:10:57.681Z,26.40
2022-10-23T09:13:41.639Z,25.90
2022-10-23T09:16:22.826Z,27.07
2022-10-23T09:18:58.457Z,27.00
2022-10-23T09:21:28.812Z,25.60
2022-10-23T09:23:57.577Z,27.73
2022-10-23T09:26:25.885Z,26.67
2022-10-23T09:29:03.534Z,26.50
2022-10-23T09:31:31.964Z,27.47
2022-10-23T09:34:02.697Z,25.60
2022-10-23T09:36:31.190Z,25.57
2022-10-23T09:39:01.664Z,25.37
2022-10-23T09:41:32.959Z,25.20
2022-10-23T09:44:03.023Z,26.43
2022-10-23T09:46:39.684Z,25.90
2022-10-23T09:49:19.537Z,27.43
2022-10-23T09:51:57.495Z,28.57
2022-10-23T09:54:26.093Z,26.03
2022-10-23T09:56:56.237Z,26.17
2022-10-23T09:59:28.487Z,27.50
2022-10-23T10:01:59.607Z,26.07
2022-10-23T10:04:57.785Z,27.60
2022-10-23T10:07:30.269Z,25.70
2022-10-23T10:10:00.587Z,27.37
2022-10-23T10:12:43.382Z,28.80
2022-10-23T10:15:27.971Z,27.73
2022-10-23T10:18:07.812Z,27.53
2022-10-23T10:20:57.916Z,25.13
2022-10-23T10:23:34.670Z,27.70
2022-10-23T10:26:16.807Z,27.83
2022-10-23T10:29:05.264Z,26.63
2022-10-23T10:31:50.652Z,26.00
2022-10-23T10:34:29.400Z,27.20
2022-10-23T10:37:06.825Z,26.70
2022-10-23T10:39:47.700Z,29.00
2022-10-23T10:42:47.448Z,26.70
2022-10-23T10:45:32.143Z,26.53
2022-10-23T10:48:24.605Z,26.40
2022-10-23T10:51:22.100Z,24.60
2022-10-23T10:54:14.859Z,23.63
2022-10-23T10:56:45.828Z,23.47
2022-10-23T10:59:22.030Z,25.10
2022-10-23T11:01:57.791Z,24.23
2022-10-23T11:04:35.074Z,25.03
2022-10-23T11:07:09.105Z,24.27
2022-10-23T11:09:40.479Z,25.00
2022-10-23T11:12:15.729Z,22.83
2022-10-23T11:14:44.372Z,23.50
2022-10-23T11:17:17.114Z,24.10
2022-10-23T11:19:48.497Z,24.13
2022-10-23T11:22:22.939Z,22.23
2022-10-23T11:25:28.625Z,23.20
2022-10-23T11:28:14.401Z,23.10
2022-10-23T11:31:00.701Z,24.77
2022-10-23T11:33:58.851Z,24.37
2022-10-23T11:36:44.211Z,23.00
2022-10-23T11:39:24.334Z,23.07
2022-10-23T11:41:57.533Z,22.53
2022-10-23T11:44:46.072Z,22.83
2022-10-23T11:47:39.301Z,21.87
2022-10-23T11:50:28.131Z,20.60
2022-10-23T11:53:13.567Z,22.53
2022-10-23T11:55:58.763Z,22.00
2022-10-23T11:58:32.167Z,22.93
2022-10-23T12:01:17.895Z,21.63
2022-10-23T12:03:52.563Z,20.37
2022-10-23T12:06:26.138Z,20.97
2022-10-23T12:08:59.973Z,21.10
2022-10-23T12:11:40.201Z,22.53
2022-10-23T12:14:27.439Z,22.63
2022-10-23T12:16:57.359Z,20.37
2022-10-23T12:19:28.245Z,21.40
2022-10-23T12:22:00.001Z,21.90
2022-10-23T12:24:42.555Z,21.43
2022-10-23T12:27:26.175Z,21.30
2022-10-23T12:30:04.187Z,24.60
2022-10-23T12:33:07.967Z,24.97
2022-10-23T12:36:22.999Z,23.17
2022-10-23T12:38:51.677Z,22.47
2022-10-23T12:41:25.353Z,22.13
2022-10-23T12:43:56.665Z,22.30
2022-10-23T12:46:32.669Z,22.83
2022-10-23T12:49:03.972Z,21.67
2022-10-23T12:51:35.234Z,22.40
2022-10-23T12:54:04.586Z,22.30
2022-10-23T12:56:36.962Z,22.47
2022-10-23T12:59:06.428Z,22.93
2022-10-23T13:01:37.650Z,22.77
2022-10-23T13:04:14.453Z,23.97
2022-10-23T13:06:45.172Z,22.40
2022-10-23T13:09:24.202Z,21.90
2022-10-23T13:12:34.428Z,22.40
2022-10-23T13:15:14.755Z,24.07
2022-10-23T13:17:45.110Z,23.30
2022-10-23T13:20:26.366Z,22.43
2022-10-23T13:23:00.941Z,23.87
2022-10-23T13:25:32.285Z,23.23
2022-10-23T13:28:21.129Z,24.73
2022-10-23T13:31:04.166Z,23.63
2022-10-23T13:33:37.764Z,23.10
2022-10-23T13:36:20.785Z,22.57
2022-10-23T13:39:02.402Z,21.23
2022-10-23T13:41:36.512Z,23.70
2022-10-23T13:44:04.941Z,22.07
2022-10-23T13:46:33.280Z,22.30
2022-10-23T13:49:01.480Z,20.87
2022-10-23T13:51:32.054Z,22.20
2022-10-23T13:54:01.805Z,22.17
2022-10-23T13:56:30.176Z,19.60
2022-10-23T13:58:58.712Z,20.50
2022-10-23T14:01:30.424Z,20.70
2022-10-23T14:04:00.358Z,21.90
2022-10-23T14:06:28.758Z,21.60
2022-10-23T14:08:57.205Z,21.83
2022-10-23T14:11:27.400Z,21.77
2022-10-23T14:13:56.818Z,22.53
2022-10-23T14:16:25.167Z,23.07
2022-10-23T14:18:53.558Z,21.33
2022-10-23T14:21:23.468Z,22.33
2022-10-23T14:23:53.171Z,23.20
2022-10-23T14:26:25.288Z,25.83
2022-10-23T14:28:57.554Z,23.73
2022-10-23T14:31:28.854Z,24.50
2022-10-23T14:34:00.609Z,23.80
2022-10-23T14:36:38.532Z,23.93
2022-10-23T14:39:18.150Z,24.57
2022-10-23T14:41:46.506Z,23.33
2022-10-23T14:44:16.339Z,25.27
2022-10-23T14:46:44.813Z,23.67
2022-10-23T14:49:13.269Z,24.43
2022-10-23T14:51:41.905Z,24.13
2022-10-23T14:54:10.274Z,22.83
2022-10-23T14:56:40.882Z,24.13
2022-10-23T14:59:10.871Z,24.60
2022-10-23T15:01:45.381Z,25.10
2022-10-23T15:04:16.259Z,24.97
2022-10-23T15:06:45.137Z,23.77
2022-10-23T15:09:13.888Z,24.10
2022-10-23T15:11:42.484Z,24.27
2022-10-23T15:14:10.915Z,24.00
2022-10-23T15:16:42.230Z,24.10
2022-10-23T15:19:15.239Z,24.60
2022-10-23T15:21:46.920Z,24.00
2022-10-23T15:24:15.344Z,25.07
2022-10-23T15:26:44.449Z,25.13
2022-10-23T15:29:14.735Z,25.50
2022-10-23T15:31:48.384Z,26.77
2022-10-23T15:34:18.815Z,25.90
2022-10-23T15:36:48.399Z,28.57
2022-10-23T15:39:18.828Z,26.13
2022-10-23T15:41:47.688Z,23.47
2022-10-23T15:44:17.730Z,24.13
2022-10-23T15:46:48.375Z,23.90
2022-10-23T15:49:17.000Z,23.10
2022-10-23T15:51:45.913Z,23.73
2022-10-23T15:54:18.977Z,23.67
2022-10-23T15:56:49.217Z,23.70
2022-10-23T15:59:18.368Z,22.13
2022-10-23T16:01:48.624Z,21.60
2022-10-23T16:04:17.703Z,21.60
2022-10-23T16:06:46.830Z,22.53
2022-10-23T16:09:16.068Z,22.50
2022-10-23T16:11:45.077Z,21.67
2022-10-23T16:14:15.186Z,22.67
2022-10-23T16:16:43.813Z,22.40
2022-10-23T16:19:13.970Z,22.27
2022-10-23T16:21:42.847Z,22.20
2022-10-23T16:24:11.818Z,22.20
2022-10-23T16:26:40.766Z,23.60
2022-10-23T16:29:09.926Z,24.27
2022-10-23T16:31:38.359Z,24.20
2022-10-23T16:34:07.099Z,23.80
2022-10-23T16:36:39.156Z,23.63
2022-10-23T16:39:22.624Z,23.17
2022-10-23T16:42:09.607Z,21.50
2022-10-23T16:44:56.731Z,24.73
2022-10-23T16:47:24.988Z,25.83
2022-10-23T16:49:53.333Z,25.90
2022-10-23T16:52:23.234Z,24.57
2022-10-23T16:54:51.580Z,24.10
2022-10-23T16:57:20.068Z,23.20
2022-10-23T16:59:48.381Z,25.40
2022-10-23T17:02:16.969Z,26.03
2022-10-23T17:04:45.395Z,24.90
2022-10-23T17:07:14.056Z,25.70
2022-10-23T17:09:46.580Z,24.77
2022-10-23T17:12:15.046Z,27.00
2022-10-23T17:14:43.724Z,29.40
2022-10-23T17:17:12.186Z,30.90
2022-10-23T17:19:46.023Z,29.80
2022-10-23T17:22:17.581Z,28.77
2022-10-23T17:24:50.199Z,29.00
2022-10-23T17:27:22.631Z,28.13
2022-10-23T17:29:50.967Z,27.07
2022-10-23T17:32:19.356Z,28.37
2022-10-23T17:34:47.767Z,26.70
2022-10-23T17:37:17.244Z,25.30
2022-10-23T17:39:46.995Z,25.13
2022-10-23T17:42:15.994Z,22.87
2022-10-23T17:44:44.382Z,22.97
2022-10-23T17:47:12.677Z,23.40
2022-10-23T17:49:42.876Z,25.67
2022-10-23T17:52:14.989Z,25.10
2022-10-23T17:54:43.446Z,25.63
2022-10-23T17:57:13.188Z,25.17
2022-10-23T17:59:41.652Z,24.50
2022-10-23T18:02:13.047Z,23.03
2022-10-23T18:04:41.501Z,21.23
2022-10-23T18:07:09.806Z,22.57
2022-10-23T18:09:38.225Z,21.30
2022-10-23T18:12:06.706Z,20.47
2022-10-23T18:14:37.735Z,22.70
2022-10-23T18:17:06.283Z,21.30
2022-10-23T18:19:34.716Z,23.30
2022-10-23T18:22:03.084Z,23.83
2022-10-23T18:24:32.052Z,24.17
2022-10-23T18:27:00.509Z,22.93
2022-10-23T18:29:28.849Z,24.70
2022-10-23T18:31:58.694Z,24.67
2022-10-23T18:34:27.220Z,23.97
2022-10-23T18:36:56.491Z,22.93
2022-10-23T18:39:26.847Z,22.60
2022-10-23T18:41:57.701Z,21.70
2022-10-23T18:44:29.048Z,21.60
2022-10-23T18:47:00.131Z,20.73
2022-10-23T18:49:29.873Z,20.10
2022-10-23T18:51:58.879Z,19.43
2022-10-23T18:54:28.498Z,20.30
2022-10-23T18:56:57.042Z,20.10
2022-10-23T18:59:25.346Z,20.90
2022-10-23T19:01:54.097Z,19.53
2022-10-23T19:04:24.017Z,18.87
2022-10-23T19:06:52.516Z,19.10
2022-10-23T19:09:21.805Z,18.97
2022-10-23T19:11:50.138Z,19.70
2022-10-23T19:14:18.462Z,18.87
2022-10-23T19:16:58.833Z,17.37
2022-10-23T19:19:31.727Z,17.20
2022-10-23T19:22:04.242Z,18.07
2022-10-23T19:24:37.144Z,18.50
2022-10-23T19:27:07.239Z,19.00
2022-10-23T19:29:40.289Z,18.70
2022-10-23T19:32:09.437Z,19.13
2022-10-23T19:34:39.732Z,19.30
2022-10-23T19:37:08.774Z,18.90
2022-10-23T19:39:37.364Z,20.23
2022-10-23T19:42:06.366Z,19.70
2022-10-23T19:44:35.276Z,19.57
2022-10-23T19:47:04.684Z,20.10
2022-10-23T19:49:33.747Z,19.77
2022-10-23T19:52:04.992Z,19.33
2022-10-23T19:54:34.211Z,19.70
2022-10-23T19:57:03.230Z,18.20
2022-10-23T19:59:32.300Z,19.03
2022-10-23T20:02:01.310Z,18.60
2022-10-23T20:04:30.620Z,17.50
2022-10-23T20:06:59.434Z,17.63
2022-10-23T20:09:29.854Z,19.40
2022-10-23T20:12:00.982Z,19.13
2022-10-23T20:14:30.091Z,19.90
2022-10-23T20:16:59.896Z,22.10
2022-10-23T20:19:28.647Z,20.50
2022-10-23T20:21:57.081Z,18.20
2022-10-23T20:24:25.445Z,21.83
2022-10-23T20:26:56.350Z,19.17
2022-10-23T20:29:25.992Z,19.73
2022-10-23T20:31:54.452Z,24.10
2022-10-23T20:34:22.844Z,20.90
2022-10-23T20:36:51.338Z,21.23
2022-10-23T20:39:21.321Z,21.07
2022-10-23T20:41:49.688Z,22.47
2022-10-23T20:44:20.081Z,19.77
2022-10-23T20:46:49.767Z,19.07
2022-10-23T20:49:18.404Z,17.47
2022-10-23T20:51:48.076Z,17.10
2022-10-23T20:54:17.781Z,18.20
2022-10-23T20:56:46.222Z,17.10
2022-10-23T20:59:16.509Z,18.83
2022-10-23T21:01:49.487Z,18.80
2022-10-23T21:04:19.948Z,18.83
2022-10-23T21:07:08.891Z,20.73
2022-10-23T21:09:38.518Z,20.50
2022-10-23T21:12:07.498Z,20.37
2022-10-23T21:14:36.169Z,21.33
2022-10-23T21:17:06.274Z,21.17
2022-10-23T21:19:34.781Z,19.43
2022-10-23T21:22:03.369Z,20.53
2022-10-23T21:24:31.831Z,24.03
2022-10-23T21:27:00.423Z,33.27
2022-10-23T21:29:28.848Z,34.50
2022-10-23T21:31:59.337Z,34.37
2022-10-23T21:34:29.865Z,36.77
2022-10-23T21:37:14.891Z,37.13
2022-10-23T21:39:44.318Z,37.90
2022-10-23T21:42:13.755Z,36.10
2022-10-23T21:44:42.292Z,35.60
2022-10-23T21:47:10.723Z,34.53
2022-10-23T21:49:40.494Z,33.10
2022-10-23T21:52:08.833Z,27.13
2022-10-23T21:54:37.183Z,23.43
2022-10-23T21:57:05.746Z,22.90
2022-10-23T21:59:35.920Z,22.87
2022-10-23T22:02:05.071Z,21.30
2022-10-23T22:04:33.783Z,24.97
2022-10-23T22:07:03.900Z,30.30
2022-10-23T22:09:33.524Z,33.77
2022-10-23T22:12:02.000Z,40.03
2022-10-23T22:14:30.288Z,34.20
2022-10-23T22:16:58.817Z,30.17
2022-10-23T22:19:27.252Z,28.30
2022-10-23T22:21:55.841Z,27.07
2022-10-23T22:24:25.751Z,26.27
2022-10-23T22:26:56.554Z,25.47
2022-10-23T22:29:26.998Z,25.90
2022-10-23T22:31:55.430Z,26.27
2022-10-23T22:34:47.858Z,27.67
2022-10-23T22:37:14.429Z,25.37
2022-10-23T22:39:44.307Z,23.40
2022-10-23T22:42:12.694Z,23.90
2022-10-23T22:44:41.081Z,26.03
2022-10-23T22:47:09.351Z,26.40
2022-10-23T22:49:38.438Z,28.70
2022-10-23T22:52:06.834Z,36.53
2022-10-23T22:54:35.432Z,28.97
2022-10-23T22:57:05.427Z,28.77
2022-10-23T22:59:33.908Z,27.13
2022-10-23T23:02:02.296Z,26.67
2022-10-23T23:04:38.983Z,28.43
2022-10-23T23:07:08.526Z,27.70
2022-10-23T23:09:38.816Z,27.80
2022-10-23T23:12:10.495Z,29.87
2022-10-23T23:14:39.083Z,37.07
2022-10-23T23:17:08.260Z,40.77
2022-10-23T23:19:36.541Z,41.83
2022-10-23T23:22:05.761Z,37.67
2022-10-23T23:24:34.298Z,33.50
2022-10-23T23:27:02.705Z,35.50
2022-10-23T23:29:32.436Z,36.13
2022-10-23T23:32:00.716Z,31.43
2022-10-23T23:34:29.608Z,31.07
2022-10-23T23:36:58.012Z,31.50
2022-10-23T23:39:28.534Z,34.10
2022-10-23T23:41:57.124Z,31.33
2022-10-23T23:44:25.643Z,32.53
2022-10-23T23:46:55.855Z,32.70
2022-10-23T23:49:24.299Z,28.67
2022-10-23T23:51:53.551Z,28.80
2022-10-23T23:54:21.913Z,27.17
2022-10-23T23:56:50.424Z,30.70
2022-10-23T23:59:18.764Z,29.63
